Time;durP1;ratioP1;P1;durP2;ratioP2;P2;SDS_P1;SDS_P2;PMS_P1;PMS_P2;Temp;Humidity;BMP_temperature;BMP_pressure;BME280_temperature;BME280_humidity;BME280_pressure;Samples;Min_cycle;Max_cycle;Signal;HPM_P1;HPM_P2
2023/10/09 04:07:44;;;;;;;0.37;0.37;;;12.90;99.90;;;;;;5033769;28;20473;-65
2023/10/09 04:12:58;;;;;;;0.40;0.40;;;13.00;99.90;;;;;;5033709;28;20179;-63
2023/10/09 04:15:24;;;;;;;0.30;0.30;;;12.90;99.90;;;;;;5040851;28;20419;-64
2023/10/09 04:17:51;;;;;;;0.30;0.30;;;12.90;99.90;;;;;;5054237;28;20414;-64
2023/10/09 04:22:50;;;;;;;1.23;0.87;;;12.90;99.90;;;;;;5054250;28;20476;-64
2023/10/09 04:25:25;;;;;;;0.30;0.30;;;13.00;99.90;;;;;;5054031;28;20214;-64
2023/10/09 04:30:43;;;;;;;0.30;0.30;;;13.00;99.90;;;;;;5054467;28;20454;-64
2023/10/09 04:33:28;;;;;;;0.30;0.30;;;13.00;99.90;;;;;;5054153;28;20410;-64
2023/10/09 04:36:26;;;;;;;0.67;0.67;;;13.00;99.90;;;;;;5053040;28;20277;-64
2023/10/09 04:39:16;;;;;;;0.30;0.20;;;13.00;99.90;;;;;;5054384;28;20407;-64
2023/10/09 04:44:19;;;;;;;0.30;0.30;;;12.90;99.90;;;;;;5036503;28;20412;-64
2023/10/09 04:47:18;;;;;;;0.30;0.20;;;12.90;99.90;;;;;;5054413;28;20240;-64
2023/10/09 04:50:03;;;;;;;0.30;0.20;;;12.90;99.90;;;;;;5054071;28;20422;-64
2023/10/09 05:02:57;;;;;;;0.30;0.27;;;12.80;99.90;;;;;;5054097;28;20401;-64
2023/10/09 05:08:28;;;;;;;0.30;0.30;;;12.80;99.90;;;;;;5053372;28;20409;-64
2023/10/09 05:16:51;;;;;;;0.30;0.30;;;12.90;99.90;;;;;;5053321;28;21102;-62
2023/10/09 05:19:54;;;;;;;0.30;0.30;;;12.90;99.90;;;;;;5050302;28;20406;-63
2023/10/09 05:21:44;;;;;;;0.30;0.30;;;12.90;99.90;;;;;;5039090;28;20447;-64
2023/10/09 05:29:24;;;;;;;0.30;0.30;;;12.90;99.90;;;;;;5046344;28;20428;-61
2023/10/09 05:31:56;;;;;;;0.30;0.30;;;12.90;99.90;;;;;;5041842;28;20826;-61
2023/10/09 05:34:36;;;;;;;0.30;0.30;;;12.90;99.90;;;;;;5053169;28;20419;-62
2023/10/09 05:37:24;;;;;;;0.40;0.40;;;12.90;99.90;;;;;;5052784;28;20438;-61
2023/10/09 05:42:44;;;;;;;0.30;0.30;;;12.90;99.90;;;;;;5045413;28;20433;-60
2023/10/09 05:48:48;;;;;;;0.30;0.30;;;12.90;99.90;;;;;;5041637;28;20418;-60
2023/10/09 06:04:49;;;;;;;0.40;0.40;;;13.10;99.90;;;;;;5049460;28;20442;-61
2023/10/09 06:07:14;;;;;;;0.30;0.30;;;13.00;99.90;;;;;;5051612;28;20499;-61
2023/10/09 06:09:57;;;;;;;0.30;0.30;;;13.10;99.90;;;;;;5051773;28;20431;-62
2023/10/09 06:15:04;;;;;;;0.30;0.20;;;13.20;99.90;;;;;;5052888;28;20462;-63
2023/10/09 06:17:43;;;;;;;0.30;0.30;;;13.20;99.90;;;;;;5051939;28;20898;-60
2023/10/09 06:21:33;;;;;;;0.30;0.20;;;13.20;99.90;;;;;;5051548;28;20428;-61
2023/10/09 06:22:58;;;;;;;0.30;0.30;;;13.20;99.90;;;;;;5052258;28;20429;-59
2023/10/09 06:25:32;;;;;;;0.30;0.20;;;13.20;99.90;;;;;;5051944;28;20426;-59
2023/10/09 06:27:58;;;;;;;0.30;0.30;;;13.30;99.90;;;;;;5051593;28;20452;-58
2023/10/09 06:30:25;;;;;;;0.30;0.30;;;13.40;99.90;;;;;;5052556;28;20459;-58
2023/10/09 06:32:57;;;;;;;0.30;0.30;;;13.40;99.90;;;;;;5052610;28;20778;-61
2023/10/09 06:35:32;;;;;;;0.30;0.20;;;13.50;99.90;;;;;;5051464;28;20502;-61
2023/10/09 06:45:54;;;;;;;0.30;0.30;;;13.80;99.90;;;;;;5051614;28;20443;-62
2023/10/09 06:59:03;;;;;;;0.50;0.50;;;14.00;99.90;;;;;;5054720;28;20429;-60
2023/10/09 07:04:18;;;;;;;0.30;0.30;;;14.00;99.90;;;;;;5051201;28;20441;-63
2023/10/09 07:15:01;;;;;;;0.30;0.30;;;14.20;99.90;;;;;;5055047;28;21266;-61
2023/10/09 07:17:44;;;;;;;0.30;0.30;;;14.30;99.90;;;;;;5054316;28;20430;-60
2023/10/09 07:20:14;;;;;;;0.30;0.30;;;14.40;99.90;;;;;;5056228;28;20815;-61
2023/10/09 07:22:52;;;;;;;0.30;0.20;;;14.50;99.90;;;;;;5055711;28;20395;-61
2023/10/09 07:28:18;;;;;;;0.83;0.50;;;14.70;99.90;;;;;;5055016;28;20423;-61
2023/10/09 07:30:44;;;;;;;0.40;0.40;;;14.80;99.90;;;;;;5050999;28;20480;-61
2023/10/09 07:38:11;;;;;;;0.57;0.57;;;15.10;99.90;;;;;;5055468;28;20411;-61
2023/10/09 07:41:33;;;;;;;0.30;0.30;;;15.30;99.90;;;;;;5055749;28;20416;-59
2023/10/09 07:48:56;;;;;;;0.30;0.30;;;15.70;99.90;;;;;;5055547;28;20416;-60
2023/10/09 07:51:23;;;;;;;0.30;0.30;;;15.80;99.90;;;;;;5055329;28;20455;-58
2023/10/09 07:54:06;;;;;;;0.30;0.30;;;15.90;99.90;;;;;;5054976;28;20750;-61
2023/10/09 07:57:08;;;;;;;0.40;0.40;;;16.00;99.90;;;;;;5053417;28;20516;-61
2023/10/09 07:59:25;;;;;;;0.30;0.30;;;16.10;99.90;;;;;;5053976;28;20419;-61
2023/10/09 08:02:13;;;;;;;0.30;0.30;;;16.30;99.90;;;;;;5055369;28;20404;-60
2023/10/09 08:07:07;;;;;;;0.30;0.30;;;16.50;99.90;;;;;;5054631;28;20548;-61
2023/10/09 08:09:46;;;;;;;0.30;0.30;;;16.50;99.90;;;;;;5036687;28;20954;-60
2023/10/09 08:15:20;;;;;;;0.30;0.20;;;16.70;99.90;;;;;;5044420;28;20441;-61
2023/10/09 08:17:53;;;;;;;0.47;0.47;;;16.80;99.90;;;;;;5054006;28;20501;-63
2023/10/09 08:20:26;;;;;;;0.70;0.70;;;17.00;99.90;;;;;;5054558;28;20503;-62
2023/10/09 08:22:55;;;;;;;0.50;0.50;;;17.10;99.90;;;;;;5053993;28;20499;-63
2023/10/09 08:25:31;;;;;;;0.50;0.50;;;17.20;99.90;;;;;;5053417;28;20446;-60
2023/10/09 08:31:34;;;;;;;0.33;0.33;;;17.30;99.90;;;;;;5053159;28;20515;-62
2023/10/09 08:33:40;;;;;;;0.30;0.20;;;17.50;99.90;;;;;;5046437;28;20778;-61
2023/10/09 08:36:07;;;;;;;0.30;0.30;;;17.50;99.90;;;;;;5053735;28;20778;-62
2023/10/09 08:38:34;;;;;;;0.30;0.20;;;17.70;99.90;;;;;;5054399;28;20463;-61
2023/10/09 08:41:18;;;;;;;0.40;0.40;;;17.80;99.90;;;;;;5054327;28;20473;-62
2023/10/09 08:43:51;;;;;;;0.33;0.33;;;18.00;99.90;;;;;;5054418;28;20761;-62
2023/10/09 08:46:22;;;;;;;0.30;0.30;;;18.10;99.90;;;;;;5054056;28;21222;-61
2023/10/09 08:48:48;;;;;;;0.30;0.30;;;18.30;99.90;;;;;;5054131;28;20408;-62
2023/10/09 08:51:14;;;;;;;0.30;0.20;;;18.50;99.90;;;;;;5053560;28;20455;-63
2023/10/09 08:53:45;;;;;;;0.30;0.30;;;18.60;99.90;;;;;;5054272;28;20503;-61
2023/10/09 08:56:19;;;;;;;0.30;0.20;;;18.70;99.90;;;;;;5053456;28;20205;-62
2023/10/09 08:58:45;;;;;;;0.30;0.30;;;18.80;99.90;;;;;;5036823;28;20514;-64
2023/10/09 09:01:17;;;;;;;0.50;0.50;;;18.90;99.90;;;;;;5053775;28;20417;-62
2023/10/09 09:03:43;;;;;;;0.30;0.30;;;19.00;99.90;;;;;;5050616;28;20236;-63
2023/10/09 09:06:10;;;;;;;0.30;0.30;;;19.20;99.90;;;;;;5042924;28;20969;-63
2023/10/09 09:08:39;;;;;;;0.30;0.30;;;19.30;99.90;;;;;;5053716;28;20763;-62
2023/10/09 09:11:12;;;;;;;0.30;0.20;;;19.40;99.90;;;;;;5053649;28;20490;-63
2023/10/09 09:13:42;;;;;;;0.30;0.30;;;19.50;99.90;;;;;;5053493;28;20983;-62
2023/10/09 09:16:31;;;;;;;0.30;0.30;;;19.70;99.90;;;;;;5052921;28;20515;-63
2023/10/09 09:19:04;;;;;;;0.30;0.30;;;19.80;99.90;;;;;;5035726;28;20438;-62
2023/10/09 09:21:40;;;;;;;0.30;0.30;;;20.00;99.90;;;;;;5052751;28;20408;-63
2023/10/09 09:26:59;;;;;;;0.30;0.20;;;20.10;99.90;;;;;;5053425;28;20958;-62
2023/10/09 09:29:38;;;;;;;0.30;0.30;;;20.30;99.90;;;;;;5053339;28;20427;-62
2023/10/09 09:32:19;;;;;;;0.30;0.30;;;20.30;99.90;;;;;;5043908;28;20514;-62
2023/10/09 09:34:55;;;;;;;0.30;0.30;;;20.40;99.90;;;;;;5042684;28;20416;-62
2023/10/09 09:37:24;;;;;;;0.30;0.30;;;20.60;99.90;;;;;;5052450;28;20871;-63
2023/10/09 09:39:51;;;;;;;0.33;0.30;;;20.90;99.90;;;;;;5053136;28;20468;-63
2023/10/09 09:42:24;;;;;;;0.30;0.20;;;21.10;99.90;;;;;;5051606;28;20437;-62
2023/10/09 09:44:51;;;;;;;0.30;0.30;;;21.30;99.90;;;;;;5053157;28;20748;-62
2023/10/09 09:47:25;;;;;;;0.40;0.40;;;21.50;99.90;;;;;;5052795;28;20420;-62
2023/10/09 09:50:00;;;;;;;0.53;0.53;;;21.70;99.90;;;;;;5053417;28;20908;-62
2023/10/09 09:52:38;;;;;;;0.30;0.30;;;22.00;99.90;;;;;;5052772;28;20556;-62
2023/10/09 09:55:05;;;;;;;0.30;0.20;;;22.20;99.90;;;;;;5052577;28;20443;-62
2023/10/09 09:57:39;;;;;;;0.30;0.30;;;22.30;99.90;;;;;;5053003;28;20845;-62
2023/10/09 10:00:17;;;;;;;0.30;0.30;;;22.50;99.90;;;;;;5053195;28;20396;-64
2023/10/09 10:02:45;;;;;;;0.30;0.30;;;22.60;99.90;;;;;;5052928;28;20427;-62
2023/10/09 10:05:11;;;;;;;0.30;0.30;;;22.90;99.80;;;;;;5052773;28;20427;-62
2023/10/09 10:07:49;;;;;;;1.77;0.83;;;23.20;98.70;;;;;;5052828;28;20592;-62
2023/10/09 10:10:34;;;;;;;0.60;0.50;;;23.50;97.90;;;;;;5052178;28;20948;-62
2023/10/09 10:13:03;;;;;;;1.03;1.03;;;23.70;97.20;;;;;;5052920;28;20420;-63
2023/10/09 10:16:11;;;;;;;0.30;0.30;;;23.80;96.20;;;;;;5052328;28;20484;-62
2023/10/09 10:18:59;;;;;;;0.30;0.30;;;24.00;96.20;;;;;;5013852;28;20427;-62
2023/10/09 10:24:05;;;;;;;0.53;0.53;;;24.00;96.30;;;;;;5036944;28;20433;-62
2023/10/09 10:26:33;;;;;;;0.30;0.30;;;23.90;96.50;;;;;;5033313;28;20526;-63
2023/10/09 10:29:26;;;;;;;0.30;0.30;;;23.90;96.60;;;;;;5049065;28;20397;-63
2023/10/09 10:31:54;;;;;;;0.30;0.20;;;23.80;96.90;;;;;;5047702;28;20454;-63
2023/10/09 10:34:23;;;;;;;0.40;0.40;;;23.70;97.00;;;;;;5056011;28;20476;-63
2023/10/09 10:36:52;;;;;;;1.37;0.87;;;23.70;97.20;;;;;;5038694;28;20802;-63
2023/10/09 10:39:21;;;;;;;0.30;0.30;;;23.80;97.20;;;;;;5056647;28;20740;-63
2023/10/09 10:41:57;;;;;;;0.83;0.50;;;23.80;96.60;;;;;;5056580;28;20430;-62
2023/10/09 10:44:42;;;;;;;0.50;0.40;;;23.90;96.20;;;;;;5056210;28;20429;-64
2023/10/09 10:47:23;;;;;;;0.33;0.30;;;24.00;95.90;;;;;;5055460;28;20507;-63
2023/10/09 10:49:50;;;;;;;0.30;0.20;;;24.00;95.60;;;;;;5056659;28;20561;-62
2023/10/09 10:52:41;;;;;;;0.30;0.20;;;24.10;95.30;;;;;;5056260;28;21042;-62
2023/10/09 10:58:00;;;;;;;0.43;0.43;;;24.20;95.30;;;;;;5056358;28;20468;-62
2023/10/09 11:03:23;;;;;;;0.30;0.27;;;24.30;95.40;;;;;;5037458;28;20420;-63
2023/10/09 11:05:52;;;;;;;0.30;0.20;;;24.30;94.40;;;;;;5055490;28;20872;-63
2023/10/09 11:08:23;;;;;;;0.40;0.40;;;24.20;94.50;;;;;;5056110;28;20396;-62
2023/10/09 11:10:50;;;;;;;0.30;0.20;;;24.20;94.50;;;;;;5055524;28;20467;-63
2023/10/09 11:13:36;;;;;;;0.40;0.40;;;24.30;94.40;;;;;;5037600;28;20417;-63
2023/10/09 11:16:28;;;;;;;0.40;0.33;;;24.40;94.70;;;;;;5054710;28;20435;-62
2023/10/09 11:18:57;;;;;;;0.30;0.20;;;24.40;94.60;;;;;;5054616;28;20399;-62
2023/10/09 11:21:30;;;;;;;0.30;0.20;;;24.50;94.50;;;;;;5055787;28;20410;-62
2023/10/09 11:24:23;;;;;;;0.30;0.30;;;24.60;94.30;;;;;;5055608;28;20383;-63
2023/10/09 11:26:53;;;;;;;0.50;0.50;;;24.80;93.90;;;;;;5055232;28;20499;-63
2023/10/09 11:32:05;;;;;;;0.60;0.60;;;25.20;92.60;;;;;;5054223;28;20538;-62
2023/10/09 11:34:34;;;;;;;0.30;0.20;;;25.30;92.50;;;;;;5037289;28;20474;-61
2023/10/09 11:37:31;;;;;;;0.60;0.40;;;25.30;92.20;;;;;;5054876;28;20504;-62
2023/10/09 11:39:58;;;;;;;0.30;0.30;;;25.40;91.70;;;;;;5054587;28;20844;-62
2023/10/09 11:45:29;;;;;;;0.33;0.33;;;25.10;91.70;;;;;;5053477;28;20425;-64
2023/10/09 11:48:03;;;;;;;0.30;0.30;;;24.90;92.00;;;;;;5054248;28;20416;-62
2023/10/09 11:50:52;;;;;;;1.23;1.13;;;24.60;92.70;;;;;;5054305;28;20420;-61
2023/10/09 11:55:52;;;;;;;0.30;0.30;;;24.00;94.20;;;;;;5054425;28;20531;-61
2023/10/09 11:58:24;;;;;;;0.30;0.30;;;23.80;94.10;;;;;;5054855;28;20395;-62
2023/10/09 12:00:56;;;;;;;0.40;0.40;;;23.80;94.40;;;;;;5054551;28;20417;-62
2023/10/09 12:03:28;;;;;;;0.30;0.30;;;23.70;94.60;;;;;;5054347;28;20424;-63
2023/10/09 12:05:56;;;;;;;0.30;0.30;;;23.80;94.60;;;;;;5053009;28;20467;-63
2023/10/09 12:08:26;;;;;;;0.80;0.80;;;23.80;94.30;;;;;;5055156;28;20475;-63
2023/10/09 12:10:54;;;;;;;0.30;0.20;;;23.90;93.60;;;;;;5055081;28;20539;-62
2023/10/09 12:13:22;;;;;;;1.03;0.50;;;24.00;93.50;;;;;;5054839;28;20411;-62
2023/10/09 12:15:48;;;;;;;0.53;0.53;;;24.00;93.90;;;;;;5054220;28;20410;-62
2023/10/09 12:18:18;;;;;;;0.30;0.30;;;24.00;94.50;;;;;;5054860;28;20407;-62
2023/10/09 12:21:01;;;;;;;0.30;0.30;;;24.10;94.60;;;;;;5054925;28;20395;-62
2023/10/09 12:23:27;;;;;;;0.30;0.20;;;24.20;94.40;;;;;;5054423;28;20920;-62
2023/10/09 12:25:56;;;;;;;0.30;0.30;;;24.30;94.10;;;;;;5054433;28;20462;-63
2023/10/09 12:28:22;;;;;;;0.30;0.27;;;24.40;93.70;;;;;;5054621;28;20379;-62
2023/10/09 12:30:50;;;;;;;0.63;0.63;;;24.50;92.90;;;;;;5054729;28;20535;-62
2023/10/09 12:33:18;;;;;;;0.30;0.30;;;24.50;92.80;;;;;;5053866;28;20417;-62
2023/10/09 12:35:47;;;;;;;0.43;0.43;;;24.50;91.90;;;;;;5054167;28;20439;-62
2023/10/09 12:38:18;;;;;;;0.30;0.20;;;24.60;92.20;;;;;;5054594;28;20412;-62
2023/10/09 12:40:50;;;;;;;0.30;0.30;;;24.60;90.70;;;;;;5054721;28;20500;-62
2023/10/09 12:43:19;;;;;;;0.30;0.30;;;24.70;90.40;;;;;;5054307;28;20447;-63
2023/10/09 12:45:45;;;;;;;1.17;1.07;;;24.80;90.30;;;;;;5053915;28;20443;-60
2023/10/09 12:48:12;;;;;;;0.30;0.30;;;24.90;90.50;;;;;;5054219;28;20507;-60
2023/10/09 12:50:44;;;;;;;0.60;0.50;;;25.00;91.40;;;;;;5053954;28;20430;-60
2023/10/09 12:53:10;;;;;;;0.40;0.30;;;25.00;92.10;;;;;;5054005;28;20752;-60
2023/10/09 12:55:40;;;;;;;0.87;0.87;;;25.00;92.20;;;;;;5052774;28;20443;-60
2023/10/09 12:58:07;;;;;;;0.93;0.40;;;25.00;92.30;;;;;;5054212;28;20421;-60
2023/10/09 13:00:39;;;;;;;0.30;0.20;;;24.90;92.30;;;;;;5054082;28;20948;-60
2023/10/09 13:03:16;;;;;;;0.43;0.43;;;24.80;92.10;;;;;;5053627;28;20422;-60
2023/10/09 13:05:51;;;;;;;0.30;0.30;;;24.70;91.80;;;;;;5053447;28;20482;-60
2023/10/09 13:08:24;;;;;;;0.33;0.33;;;24.60;91.90;;;;;;5053841;28;20457;-60
2023/10/09 13:10:58;;;;;;;0.30;0.30;;;24.50;92.00;;;;;;5053566;28;20539;-60
2023/10/09 13:13:36;;;;;;;0.30;0.30;;;24.50;92.20;;;;;;5053740;28;20390;-60
2023/10/09 13:16:06;;;;;;;0.30;0.30;;;24.60;92.20;;;;;;5053452;28;20431;-60
2023/10/09 13:18:31;;;;;;;0.30;0.30;;;24.60;92.40;;;;;;5053921;28;20371;-60
2023/10/09 13:20:57;;;;;;;0.30;0.30;;;24.60;92.10;;;;;;5053738;28;20774;-60
2023/10/09 13:23:27;;;;;;;2.30;2.10;;;24.70;91.80;;;;;;5053370;28;20185;-59
2023/10/09 13:25:53;;;;;;;0.57;0.57;;;24.80;90.40;;;;;;5053027;28;20205;-59
2023/10/09 13:28:20;;;;;;;0.30;0.20;;;24.90;90.60;;;;;;5053625;28;20389;-59
2023/10/09 13:30:50;;;;;;;0.30;0.20;;;25.00;89.70;;;;;;5053189;28;20201;-59
2023/10/09 13:33:17;;;;;;;0.30;0.30;;;25.10;84.70;;;;;;5053562;28;20786;-59
2023/10/09 13:35:50;;;;;;;0.30;0.23;;;25.10;85.20;;;;;;5052454;28;20418;-59
2023/10/09 13:38:16;;;;;;;0.30;0.20;;;25.10;85.90;;;;;;5053343;28;20390;-60
2023/10/09 13:40:42;;;;;;;0.30;0.30;;;25.20;86.60;;;;;;5053310;28;20417;-60
2023/10/09 13:43:16;;;;;;;3.13;0.83;;;25.20;86.20;;;;;;5052744;28;20447;-60
2023/10/09 13:45:48;;;;;;;0.50;0.30;;;25.20;84.30;;;;;;5052710;28;20190;-60
2023/10/09 13:48:17;;;;;;;0.30;0.30;;;25.20;80.70;;;;;;5053122;28;20387;-60
2023/10/09 13:50:44;;;;;;;0.30;0.20;;;25.20;80.00;;;;;;5053138;28;20464;-60
2023/10/09 13:53:10;;;;;;;0.40;0.37;;;25.20;79.90;;;;;;5053204;28;20408;-61
2023/10/09 13:55:43;;;;;;;0.50;0.40;;;25.30;79.50;;;;;;5052737;28;20771;-61
2023/10/09 13:58:14;;;;;;;0.30;0.30;;;25.30;78.90;;;;;;5053736;28;20416;-60
2023/10/09 14:00:42;;;;;;;0.30;0.30;;;25.30;78.60;;;;;;5053321;28;20412;-60
2023/10/09 14:03:14;;;;;;;0.30;0.30;;;25.40;77.30;;;;;;5053333;28;20412;-60
2023/10/09 14:05:54;;;;;;;0.37;0.37;;;25.40;75.80;;;;;;5052709;28;20511;-60
2023/10/09 14:08:23;;;;;;;0.30;0.30;;;25.50;74.70;;;;;;5057355;28;20424;-60
2023/10/09 14:10:51;;;;;;;0.40;0.40;;;25.60;72.50;;;;;;5057176;28;20848;-60
2023/10/09 14:13:25;;;;;;;0.73;0.73;;;25.70;70.70;;;;;;5057422;28;20494;-60
2023/10/09 14:15:52;;;;;;;0.30;0.20;;;25.70;69.80;;;;;;5057042;28;20434;-60
2023/10/09 14:18:17;;;;;;;1.27;0.87;;;25.70;66.70;;;;;;5057298;28;20507;-60
2023/10/09 14:20:43;;;;;;;0.30;0.20;;;25.70;68.30;;;;;;5057112;28;20487;-60
2023/10/09 14:23:12;;;;;;;0.40;0.40;;;25.60;68.50;;;;;;5057247;28;20180;-61
2023/10/09 14:25:39;;;;;;;0.50;0.43;;;25.60;66.80;;;;;;5056487;28;20189;-61
2023/10/09 14:28:08;;;;;;;0.80;0.80;;;25.50;66.40;;;;;;5057428;28;20424;-60
2023/10/09 14:30:44;;;;;;;0.43;0.40;;;25.40;66.50;;;;;;5056847;28;20403;-61
2023/10/09 14:33:13;;;;;;;0.30;0.30;;;25.30;66.40;;;;;;5056991;28;20382;-62
2023/10/09 14:35:43;;;;;;;0.50;0.50;;;25.30;65.70;;;;;;5056327;28;20786;-61
2023/10/09 14:38:12;;;;;;;0.60;0.60;;;25.20;65.70;;;;;;5056767;28;20407;-61
2023/10/09 14:40:47;;;;;;;0.30;0.30;;;25.10;64.30;;;;;;5056835;28;20916;-61
2023/10/09 14:43:19;;;;;;;0.30;0.30;;;25.00;62.40;;;;;;5056677;28;20416;-61
2023/10/09 14:45:48;;;;;;;0.50;0.50;;;24.90;62.10;;;;;;5056135;28;20991;-61
2023/10/09 14:48:17;;;;;;;0.60;0.60;;;24.90;61.00;;;;;;5056468;28;20511;-61
2023/10/09 14:50:48;;;;;;;0.30;0.30;;;24.90;60.10;;;;;;5056221;28;20422;-61
2023/10/09 14:53:15;;;;;;;0.30;0.30;;;24.90;60.30;;;;;;5056657;28;20442;-61
2023/10/09 14:55:44;;;;;;;0.30;0.20;;;24.90;59.90;;;;;;5056190;28;20410;-61
2023/10/09 14:58:11;;;;;;;0.30;0.20;;;24.90;59.60;;;;;;5056505;28;20415;-62
2023/10/09 15:00:38;;;;;;;0.30;0.20;;;24.90;59.20;;;;;;5056404;28;20423;-61
2023/10/09 15:03:04;;;;;;;0.30;0.30;;;24.80;58.70;;;;;;5056366;28;21037;-62
2023/10/09 15:05:31;;;;;;;0.80;0.80;;;24.70;59.20;;;;;;5055701;28;20499;-61
2023/10/09 15:07:57;;;;;;;0.30;0.20;;;24.70;59.40;;;;;;5056290;28;20157;-61
2023/10/09 15:10:24;;;;;;;0.40;0.30;;;24.70;59.30;;;;;;5056247;28;20793;-60
2023/10/09 15:12:49;;;;;;;0.60;0.50;;;24.60;59.30;;;;;;5056321;28;20181;-61
2023/10/09 15:15:15;;;;;;;0.50;0.50;;;24.50;59.40;;;;;;5055664;28;20515;-61
2023/10/09 15:17:43;;;;;;;1.60;0.87;;;24.50;59.60;;;;;;5055292;28;20173;-61
2023/10/09 15:20:13;;;;;;;0.40;0.30;;;24.50;59.80;;;;;;5056226;28;20181;-60
2023/10/09 15:22:43;;;;;;;0.50;0.50;;;24.40;60.10;;;;;;5056075;28;20412;-61
2023/10/09 15:25:14;;;;;;;0.60;0.60;;;24.30;60.00;;;;;;5055351;28;20424;-61
2023/10/09 15:27:40;;;;;;;0.60;0.60;;;24.20;60.30;;;;;;5055869;28;20950;-61
2023/10/09 15:30:08;;;;;;;0.30;0.30;;;24.20;60.40;;;;;;5055768;28;20416;-61
2023/10/09 15:32:34;;;;;;;0.60;0.40;;;24.20;60.20;;;;;;5033887;28;20974;-60
2023/10/09 15:35:03;;;;;;;0.30;0.30;;;24.10;60.50;;;;;;5051287;28;20425;-61
2023/10/09 15:37:29;;;;;;;0.30;0.20;;;24.00;60.90;;;;;;5055447;28;20419;-61
2023/10/09 15:39:54;;;;;;;0.30;0.30;;;23.90;60.90;;;;;;5055614;28;20408;-59
2023/10/09 15:42:20;;;;;;;3.90;0.77;;;23.80;61.00;;;;;;5055597;28;20416;-61
2023/10/09 15:44:47;;;;;;;0.80;0.80;;;23.80;61.60;;;;;;5055164;28;20532;-62
2023/10/09 15:47:15;;;;;;;0.60;0.60;;;23.70;61.70;;;;;;5055534;28;20189;-63
2023/10/09 15:49:43;;;;;;;1.20;0.53;;;23.60;62.30;;;;;;5055388;28;20803;-61
2023/10/09 15:52:13;;;;;;;0.50;0.50;;;23.50;62.00;;;;;;5055412;28;20473;-64
2023/10/09 15:54:46;;;;;;;0.30;0.30;;;23.50;62.30;;;;;;5037138;28;20412;-64
2023/10/09 15:57:11;;;;;;;0.30;0.20;;;23.40;62.00;;;;;;5054776;28;20509;-62
2023/10/09 15:59:38;;;;;;;1.13;0.60;;;23.30;62.20;;;;;;5055222;28;20481;-62
2023/10/09 16:02:05;;;;;;;0.40;0.40;;;23.30;62.90;;;;;;5037747;28;20171;-63
2023/10/09 16:04:33;;;;;;;0.30;0.20;;;23.20;63.70;;;;;;5054725;28;20427;-62
2023/10/09 16:07:00;;;;;;;0.30;0.30;;;23.10;64.50;;;;;;5055117;28;20432;-62
2023/10/09 16:09:26;;;;;;;0.50;0.50;;;23.00;64.50;;;;;;5055150;28;20434;-61
2023/10/09 16:11:53;;;;;;;0.30;0.20;;;22.90;64.70;;;;;;5054456;28;20552;-63
2023/10/09 16:14:19;;;;;;;0.73;0.67;;;22.80;64.70;;;;;;5053812;28;20199;-63
2023/10/09 16:16:45;;;;;;;3.17;1.23;;;22.70;64.40;;;;;;5053595;28;20954;-64
2023/10/09 16:19:11;;;;;;;0.30;0.30;;;22.60;64.40;;;;;;5054617;28;20204;-63
2023/10/09 16:21:40;;;;;;;1.33;1.33;;;22.50;64.40;;;;;;5054611;28;20169;-64
2023/10/09 16:24:09;;;;;;;0.43;0.43;;;22.40;64.40;;;;;;5054024;28;21251;-64
2023/10/09 16:26:39;;;;;;;0.30;0.30;;;22.30;64.40;;;;;;5054299;28;20571;-62
2023/10/09 16:29:09;;;;;;;0.93;0.93;;;22.20;64.50;;;;;;5037059;28;20425;-63
2023/10/09 16:31:35;;;;;;;0.30;0.27;;;22.10;65.00;;;;;;5053290;28;20506;-63
2023/10/09 16:34:04;;;;;;;0.40;0.40;;;22.00;65.30;;;;;;5054069;28;20404;-64
2023/10/09 16:36:33;;;;;;;0.80;0.80;;;21.80;65.20;;;;;;5053696;28;20436;-64
2023/10/09 16:38:58;;;;;;;0.30;0.30;;;21.70;67.10;;;;;;5054155;28;20789;-62
2023/10/09 16:41:26;;;;;;;0.43;0.43;;;21.60;72.70;;;;;;5054207;28;20412;-63
2023/10/09 16:43:52;;;;;;;0.30;0.30;;;21.50;74.20;;;;;;5054220;28;20182;-64
2023/10/09 16:46:23;;;;;;;0.30;0.27;;;21.40;75.40;;;;;;5053654;28;20497;-61
2023/10/09 16:48:57;;;;;;;1.90;0.80;;;21.20;76.80;;;;;;5053798;28;21044;-60
2023/10/09 16:51:23;;;;;;;0.30;0.30;;;21.10;77.60;;;;;;5053687;28;20460;-61
2023/10/09 16:53:52;;;;;;;0.30;0.30;;;21.00;79.30;;;;;;5035221;28;20481;-63
2023/10/09 16:56:21;;;;;;;0.30;0.30;;;20.90;79.10;;;;;;5053740;28;20200;-64
2023/10/09 16:58:48;;;;;;;0.30;0.30;;;20.70;77.70;;;;;;5053295;28;20420;-62
2023/10/09 17:01:20;;;;;;;0.30;0.30;;;20.70;76.70;;;;;;5053682;28;20829;-62
2023/10/09 17:03:54;;;;;;;0.33;0.33;;;20.60;76.90;;;;;;5036696;28;20407;-63
2023/10/09 17:06:20;;;;;;;0.30;0.30;;;20.50;76.30;;;;;;5053649;28;20558;-62
2023/10/09 17:08:47;;;;;;;0.60;0.60;;;20.50;76.20;;;;;;5053874;28;20402;-63
2023/10/09 17:11:20;;;;;;;0.30;0.30;;;20.40;77.10;;;;;;5053801;28;20459;-59
2023/10/09 17:13:50;;;;;;;0.30;0.30;;;20.30;79.50;;;;;;5053876;28;20463;-59
2023/10/09 17:16:17;;;;;;;0.30;0.30;;;20.20;82.00;;;;;;5035969;28;20860;-58
2023/10/09 17:18:51;;;;;;;0.30;0.20;;;20.10;83.70;;;;;;5053450;28;20387;-58
2023/10/09 17:21:20;;;;;;;0.30;0.30;;;20.00;84.20;;;;;;5053814;28;20447;-58
2023/10/09 17:23:45;;;;;;;1.23;1.23;;;19.90;85.00;;;;;;5049789;28;20800;-58
2023/10/09 17:26:17;;;;;;;0.40;0.40;;;19.70;86.90;;;;;;5053368;28;20431;-59
2023/10/09 17:28:43;;;;;;;0.30;0.20;;;19.60;87.50;;;;;;5053362;28;20205;-58
2023/10/09 17:31:09;;;;;;;0.30;0.30;;;19.50;88.30;;;;;;5053250;28;21232;-58
2023/10/09 17:33:35;;;;;;;0.50;0.30;;;19.30;89.70;;;;;;5053323;28;20400;-59
2023/10/09 17:36:05;;;;;;;0.63;0.63;;;19.10;90.30;;;;;;5035159;28;20555;-59
2023/10/09 17:38:32;;;;;;;0.30;0.30;;;19.00;90.40;;;;;;5035462;28;20173;-61
2023/10/09 17:40:59;;;;;;;0.70;0.70;;;18.90;90.60;;;;;;5052729;28;20416;-60
2023/10/09 17:43:25;;;;;;;0.40;0.40;;;18.80;90.90;;;;;;5043317;28;20853;-64
2023/10/09 17:45:54;;;;;;;0.30;0.30;;;18.80;90.70;;;;;;5032727;28;20446;-63
2023/10/09 17:48:23;;;;;;;0.30;0.30;;;18.70;90.90;;;;;;5016083;28;20504;-62
2023/10/09 17:50:50;;;;;;;0.30;0.30;;;18.60;90.70;;;;;;5032805;28;20816;-64
2023/10/09 17:53:18;;;;;;;0.73;0.73;;;18.50;90.80;;;;;;5033017;28;20804;-55
2023/10/09 17:55:46;;;;;;;0.30;0.30;;;18.40;91.20;;;;;;5042830;28;20887;-63
2023/10/09 17:58:12;;;;;;;0.87;0.87;;;18.40;91.70;;;;;;5033045;28;20407;-59
2023/10/09 18:00:40;;;;;;;0.30;0.30;;;18.20;92.10;;;;;;5033390;28;20416;-60
2023/10/09 18:03:07;;;;;;;0.30;0.30;;;18.10;92.50;;;;;;5033156;28;20542;-62
2023/10/09 18:05:33;;;;;;;0.30;0.30;;;18.00;92.60;;;;;;5032610;28;20532;-60
2023/10/09 18:08:01;;;;;;;0.70;0.70;;;17.90;92.80;;;;;;5034114;28;20423;-61
2023/10/09 18:10:40;;;;;;;0.30;0.30;;;17.80;93.00;;;;;;5045959;28;20412;-61
2023/10/09 18:13:05;;;;;;;0.67;0.67;;;17.70;92.90;;;;;;5048575;28;20941;-61
2023/10/09 18:15:33;;;;;;;0.30;0.20;;;17.70;92.60;;;;;;5032641;28;20448;-59
2023/10/09 18:18:03;;;;;;;0.30;0.30;;;17.60;92.50;;;;;;5052508;28;20188;-60
2023/10/09 18:20:29;;;;;;;1.43;1.33;;;17.60;92.70;;;;;;5048301;28;20433;-61
2023/10/09 18:22:55;;;;;;;0.30;0.30;;;17.50;93.20;;;;;;5034545;28;20951;-61
2023/10/09 18:25:20;;;;;;;0.30;0.30;;;17.50;93.70;;;;;;5051487;28;20445;-59
2023/10/09 18:27:46;;;;;;;0.30;0.30;;;17.40;93.90;;;;;;5052310;28;20180;-60
2023/10/09 18:30:13;;;;;;;0.30;0.30;;;17.30;94.00;;;;;;5051595;28;20179;-59
2023/10/09 18:32:44;;;;;;;0.93;0.93;;;17.30;94.20;;;;;;5052211;28;20462;-60
2023/10/09 18:35:10;;;;;;;0.30;0.30;;;17.20;94.40;;;;;;5052381;28;20476;-61
2023/10/09 18:37:38;;;;;;;0.30;0.30;;;17.20;94.80;;;;;;5052799;28;20892;-59
2023/10/09 18:40:16;;;;;;;0.40;0.40;;;17.10;95.30;;;;;;5031482;28;20530;-59
2023/10/09 18:42:42;;;;;;;0.70;0.70;;;17.10;95.90;;;;;;5051714;28;20433;-61
2023/10/09 18:45:09;;;;;;;0.30;0.20;;;17.10;96.40;;;;;;5051050;28;20475;-62
2023/10/09 18:47:37;;;;;;;0.40;0.40;;;17.10;97.40;;;;;;5052373;28;20409;-58
2023/10/09 18:50:11;;;;;;;0.30;0.30;;;17.00;97.50;;;;;;5052102;28;20421;-58
2023/10/09 18:52:42;;;;;;;0.30;0.30;;;17.10;97.70;;;;;;5052135;28;20453;-60
2023/10/09 18:55:11;;;;;;;0.30;0.20;;;17.00;98.30;;;;;;5055909;28;20444;-60
2023/10/09 18:57:37;;;;;;;0.30;0.30;;;17.00;98.70;;;;;;5056191;28;20426;-59
2023/10/09 19:00:09;;;;;;;0.30;0.20;;;17.00;98.50;;;;;;5056103;28;20787;-60
2023/10/09 19:02:34;;;;;;;0.40;0.40;;;17.00;98.50;;;;;;5046963;28;20512;-60
2023/10/09 19:05:00;;;;;;;0.30;0.20;;;17.00;98.40;;;;;;5043843;28;20538;-59
2023/10/09 19:07:27;;;;;;;0.30;0.20;;;17.00;98.40;;;;;;5046202;28;20239;-59
2023/10/09 19:09:55;;;;;;;0.30;0.30;;;17.00;98.40;;;;;;5052429;28;20199;-59
2023/10/09 19:12:21;;;;;;;0.40;0.40;;;17.00;98.20;;;;;;5053211;28;20459;-58
2023/10/09 19:14:47;;;;;;;0.30;0.30;;;17.00;98.10;;;;;;5048954;28;20442;-59
2023/10/09 19:17:14;;;;;;;0.63;0.63;;;17.00;97.90;;;;;;5048185;28;20167;-59
2023/10/09 19:19:40;;;;;;;0.30;0.20;;;17.00;97.90;;;;;;5044558;28;20416;-60
2023/10/09 19:22:07;;;;;;;0.30;0.20;;;17.00;98.00;;;;;;5045996;28;20398;-59